<h2>EGCC -- Manchester</h2><p>newest destination to fly virtually</p> <h2>HKJK -- Nairobi</h2><p>Newest destination to fly virtualy</p>

Oman Air Virtual

About Us. About Our VA

Book Virtual Flights

Fly from Muscat to the World Virtually!

OMV News & Updates

OMV Newest Pilot

OMV Statistics

Total Fights Loged Today: 3
Total Visits Past Hour: 2
Total Pilots Registered: 132
Total Flights Flown: 2850
Total Aircrafts Active: 50
Total Flight Schedules: 258
Total Miles Flown: 3082730
Total Hours Clocked: 7807.44
VA average landing rate: -26.08
Virtual Airline Rank: 133

Flight Tracking

LIVE Flight Tracking and Route

Destinations

View Our Wide Virtual Network

Opreated by # No. Origin Destination Fleet / PIC
OMA707 OOMS HTDA 737-81M

PIC: Saud Alshidhani
OMA631 OOMS OMAA 737-81M

PIC: Munther Alhadidi
OMA643 OOMS OKBK 737-81M

PIC: Abdulaziz Albarwani

Coming Soon !!


Opreated by # No. Origin Destination Landing Rate Status
OMA5002

View Report
HAAB OOMS -139 ft/min Normal landing Accepted
OMA5001

View Report
OOMS HAAB -129 ft/min Normal landing Accepted
OMA606

View Report
OTHH OOMS 0 ft/min Not Record Approval Pending
OMA2296

View Report
OOSA OOMS -167 ft/min Normal landing Accepted
OMA910

View Report
OOSA OOMS -241 ft/min Normal landing Accepted

Source: IVAO Metar and TAF Information.

Muscat International Airport (ICAO: OOMS)
METAR: OOMS 271550Z 35005KT CAVOK 27/17 Q1015 NOSIG
TAF: OOMS 271100Z 2712/2818 35010KT 9000 NSC BECMG 2715/2717 24005KT BECMG 2806/2808 02012KT BECMG 2815/2817 VRB03KT

Salalah International Airport (ICAO: OOSA)
METAR: OOSA 271550Z 18004KT CAVOK 27/21 Q1015 NOSIG
TAF: OOSA 271110Z 2712/2818 18010KT CAVOK BECMG 2718/2720 VRB03KT BECMG 2808/2810 19010KT

Oman Air Virtual is no way affiliated to the real Oman Air. How ever the brand logo, colors belongs to Oman Air and we use only for the Simulation Purpose for the virtual aviation enthousiast around the globe.

If you are looking for Oman Air website, we kindly request you to visit www.omanair.com

ATC Online IVAO
Pilots Online IVAO
Member Online